MATER UKLL (LWO)

Остані дані METAR із Аеропорта UKLL (LWO)

L'Viv, Ukraine (UKLL) 49-49N 023-57E 323M
Sep 26, 2021 - 06:00 AM EDT / 2021.09.26 1000 UTC
Wind: Variable at 2 MPH (2 KT):0
Visibility: greater than 7 mile(s):0
Temperature: 62 F (17 C)
Dew Point: 55 F (13 C)
Relative Humidity: 77%
Pressure (altimeter): 30.21 in. Hg (1023 hPa)
ob: UKLL 261000Z VRB01MPS CAVOK 17/13 Q1023 R31/CLRD// NOSIG
cycle: 10